sensor_id;sensor_type;location;lat;lon;timestamp;pressure;altitude;pressure_sealevel;temperature;humidity
49311;BME280;35177;45.900;5.946;2022-08-05T00:01:01;97360.13;;;21.76;100.00
49311;BME280;35177;45.900;5.946;2022-08-05T00:03:26;97353.31;;;21.95;99.13
49311;BME280;35177;45.900;5.946;2022-08-05T00:05:52;97353.31;;;21.91;99.18
49311;BME280;35177;45.900;5.946;2022-08-05T00:08:17;97358.13;;;21.83;100.00
49311;BME280;35177;45.900;5.946;2022-08-05T00:10:44;97356.78;;;21.56;100.00
49311;BME280;35177;45.900;5.946;2022-08-05T00:13:09;97355.91;;;21.51;100.00
49311;BME280;35177;45.900;5.946;2022-08-05T00:15:35;97351.44;;;21.43;100.00
49311;BME280;35177;45.900;5.946;2022-08-05T00:18:00;97357.97;;;21.55;100.00
49311;BME280;35177;45.900;5.946;2022-08-05T00:20:26;97359.63;;;21.63;100.00
49311;BME280;35177;45.900;5.946;2022-08-05T00:22:51;97357.75;;;21.81;100.00
49311;BME280;35177;45.900;5.946;2022-08-05T00:25:17;97357.72;;;21.85;100.00
49311;BME280;35177;45.900;5.946;2022-08-05T00:27:42;97360.56;;;21.85;100.00
49311;BME280;35177;45.900;5.946;2022-08-05T00:30:08;97359.09;;;21.43;100.00
49311;BME280;35177;45.900;5.946;2022-08-05T00:32:34;97357.81;;;21.29;100.00
49311;BME280;35177;45.900;5.946;2022-08-05T00:34:59;97353.47;;;21.46;100.00
49311;BME280;35177;45.900;5.946;2022-08-05T00:37:25;97353.72;;;21.23;100.00
49311;BME280;35177;45.900;5.946;2022-08-05T00:39:50;97353.28;;;21.14;100.00
49311;BME280;35177;45.900;5.946;2022-08-05T00:42:28;97353.22;;;21.07;100.00
49311;BME280;35177;45.900;5.946;2022-08-05T00:44:54;97356.75;;;20.96;100.00
49311;BME280;35177;45.900;5.946;2022-08-05T00:47:20;97361.63;;;20.99;100.00
49311;BME280;35177;45.900;5.946;2022-08-05T00:49:45;97347.88;;;20.98;100.00
49311;BME280;35177;45.900;5.946;2022-08-05T00:52:11;97349.56;;;21.06;100.00
49311;BME280;35177;45.900;5.946;2022-08-05T00:54:36;97348.81;;;21.09;100.00
49311;BME280;35177;45.900;5.946;2022-08-05T00:57:02;97350.66;;;20.87;100.00
49311;BME280;35177;45.900;5.946;2022-08-05T00:59:27;97350.03;;;20.67;100.00
49311;BME280;35177;45.900;5.946;2022-08-05T01:01:53;97345.41;;;20.89;100.00
49311;BME280;35177;45.900;5.946;2022-08-05T01:04:18;97345.59;;;21.14;100.00
49311;BME280;35177;45.900;5.946;2022-08-05T01:06:46;97348.72;;;20.98;100.00
49311;BME280;35177;45.900;5.946;2022-08-05T01:09:12;97341.97;;;20.65;100.00
49311;BME280;35177;45.900;5.946;2022-08-05T01:11:38;97339.97;;;20.69;100.00
49311;BME280;35177;45.900;5.946;2022-08-05T01:14:16;97339.34;;;20.83;100.00
49311;BME280;35177;45.900;5.946;2022-08-05T01:27:14;97335.75;;;20.90;100.00
49311;BME280;35177;45.900;5.946;2022-08-05T01:29:49;97336.16;;;20.47;100.00
49311;BME280;35177;45.900;5.946;2022-08-05T01:32:21;97334.44;;;20.35;100.00
49311;BME280;35177;45.900;5.946;2022-08-05T01:34:50;97331.22;;;20.37;100.00
49311;BME280;35177;45.900;5.946;2022-08-05T01:37:25;97331.44;;;20.17;100.00
49311;BME280;35177;45.900;5.946;2022-08-05T01:39:54;97335.00;;;20.11;100.00
49311;BME280;35177;45.900;5.946;2022-08-05T01:42:22;97331.63;;;19.98;100.00
49311;BME280;35177;45.900;5.946;2022-08-05T01:44:48;97329.13;;;20.27;100.00
49311;BME280;35177;45.900;5.946;2022-08-05T01:47:16;97337.69;;;20.41;100.00
49311;BME280;35177;45.900;5.946;2022-08-05T01:49:44;97337.22;;;20.32;100.00
49311;BME280;35177;45.900;5.946;2022-08-05T01:52:11;97348.09;;;19.96;100.00
49311;BME280;35177;45.900;5.946;2022-08-05T01:54:57;97341.94;;;19.86;100.00
49311;BME280;35177;45.900;5.946;2022-08-05T01:57:27;97342.88;;;19.98;100.00
49311;BME280;35177;45.900;5.946;2022-08-05T01:59:57;97344.28;;;20.15;100.00
49311;BME280;35177;45.900;5.946;2022-08-05T02:02:24;97350.53;;;20.35;100.00
49311;BME280;35177;45.900;5.946;2022-08-05T02:04:51;97348.06;;;20.71;100.00
49311;BME280;35177;45.900;5.946;2022-08-05T02:07:19;97349.19;;;20.63;100.00
49311;BME280;35177;45.900;5.946;2022-08-05T02:09:45;97346.88;;;19.97;100.00
49311;BME280;35177;45.900;5.946;2022-08-05T02:12:23;97347.31;;;19.99;100.00
49311;BME280;35177;45.900;5.946;2022-08-05T02:14:59;97353.66;;;19.92;100.00
49311;BME280;35177;45.900;5.946;2022-08-05T02:17:35;97348.56;;;19.71;100.00
49311;BME280;35177;45.900;5.946;2022-08-05T02:20:06;97349.31;;;19.37;100.00
49311;BME280;35177;45.900;5.946;2022-08-05T02:22:42;97352.03;;;19.30;100.00
49311;BME280;35177;45.900;5.946;2022-08-05T02:25:24;97344.56;;;19.15;100.00
49311;BME280;35177;45.900;5.946;2022-08-05T02:27:51;97343.81;;;19.18;100.00
49311;BME280;35177;45.900;5.946;2022-08-05T02:30:18;97345.59;;;19.30;100.00
49311;BME280;35177;45.900;5.946;2022-08-05T02:32:50;97346.56;;;19.41;100.00
49311;BME280;35177;45.900;5.946;2022-08-05T02:35:20;97345.66;;;19.33;100.00
49311;BME280;35177;45.900;5.946;2022-08-05T02:37:47;97346.22;;;19.46;100.00
49311;BME280;35177;45.900;5.946;2022-08-05T02:40:16;97345.56;;;19.26;100.00
49311;BME280;35177;45.900;5.946;2022-08-05T02:42:41;97347.53;;;19.25;100.00
49311;BME280;35177;45.900;5.946;2022-08-05T02:45:08;97351.66;;;19.05;100.00
49311;BME280;35177;45.900;5.946;2022-08-05T02:47:36;97350.97;;;19.12;100.00
49311;BME280;35177;45.900;5.946;2022-08-05T02:50:03;97350.50;;;19.36;100.00
49311;BME280;35177;45.900;5.946;2022-08-05T02:52:30;97355.09;;;19.48;100.00
49311;BME280;35177;45.900;5.946;2022-08-05T02:54:59;97356.84;;;19.60;100.00
49311;BME280;35177;45.900;5.946;2022-08-05T02:57:25;97349.78;;;19.73;100.00
49311;BME280;35177;45.900;5.946;2022-08-05T02:59:52;97352.56;;;19.39;100.00
49311;BME280;35177;45.900;5.946;2022-08-05T03:02:19;97348.66;;;19.48;100.00
49311;BME280;35177;45.900;5.946;2022-08-05T03:04:48;97353.47;;;19.47;100.00
49311;BME280;35177;45.900;5.946;2022-08-05T03:07:14;97355.75;;;19.38;100.00
49311;BME280;35177;45.900;5.946;2022-08-05T03:09:41;97355.81;;;19.15;100.00
49311;BME280;35177;45.900;5.946;2022-08-05T03:12:08;97358.03;;;18.78;100.00
49311;BME280;35177;45.900;5.946;2022-08-05T03:14:34;97358.53;;;18.84;100.00
49311;BME280;35177;45.900;5.946;2022-08-05T03:17:00;97356.72;;;18.72;100.00
49311;BME280;35177;45.900;5.946;2022-08-05T03:19:25;97350.25;;;18.91;100.00
49311;BME280;35177;45.900;5.946;2022-08-05T03:21:51;97349.09;;;18.73;100.00
49311;BME280;35177;45.900;5.946;2022-08-05T03:24:18;97349.16;;;18.76;100.00
49311;BME280;35177;45.900;5.946;2022-08-05T03:26:44;97354.69;;;18.46;100.00
49311;BME280;35177;45.900;5.946;2022-08-05T03:29:10;97358.09;;;18.36;100.00
49311;BME280;35177;45.900;5.946;2022-08-05T03:31:36;97353.72;;;18.38;100.00
49311;BME280;35177;45.900;5.946;2022-08-05T03:34:03;97354.63;;;18.42;100.00
49311;BME280;35177;45.900;5.946;2022-08-05T03:36:29;97339.22;;;18.59;100.00
49311;BME280;35177;45.900;5.946;2022-08-05T03:38:55;97342.59;;;18.45;100.00
49311;BME280;35177;45.900;5.946;2022-08-05T03:41:21;97340.63;;;18.46;100.00
49311;BME280;35177;45.900;5.946;2022-08-05T03:43:47;97342.41;;;18.35;100.00
49311;BME280;35177;45.900;5.946;2022-08-05T03:46:12;97343.38;;;18.42;100.00
49311;BME280;35177;45.900;5.946;2022-08-05T03:48:37;97343.25;;;18.58;100.00
49311;BME280;35177;45.900;5.946;2022-08-05T03:51:11;97344.69;;;18.49;100.00
49311;BME280;35177;45.900;5.946;2022-08-05T03:54:04;97350.38;;;18.09;100.00
49311;BME280;35177;45.900;5.946;2022-08-05T03:56:44;97347.34;;;18.18;100.00
49311;BME280;35177;45.900;5.946;2022-08-05T03:59:20;97356.41;;;18.31;100.00
49311;BME280;35177;45.900;5.946;2022-08-05T04:01:49;97356.50;;;18.15;100.00
49311;BME280;35177;45.900;5.946;2022-08-05T04:04:18;97352.19;;;18.21;100.00
49311;BME280;35177;45.900;5.946;2022-08-05T04:06:45;97361.78;;;18.40;100.00
49311;BME280;35177;45.900;5.946;2022-08-05T04:09:12;97354.16;;;18.40;100.00
49311;BME280;35177;45.900;5.946;2022-08-05T04:11:39;97348.97;;;18.19;100.00
49311;BME280;35177;45.900;5.946;2022-08-05T04:14:04;97355.94;;;18.06;100.00
49311;BME280;35177;45.900;5.946;2022-08-05T04:16:32;97358.56;;;17.79;100.00
49311;BME280;35177;45.900;5.946;2022-08-05T04:19:00;97358.06;;;18.12;100.00
49311;BME280;35177;45.900;5.946;2022-08-05T04:21:26;97352.13;;;19.37;100.00
49311;BME280;35177;45.900;5.946;2022-08-05T04:23:52;97350.81;;;19.88;100.00
49311;BME280;35177;45.900;5.946;2022-08-05T04:26:17;97352.16;;;20.36;100.00
49311;BME280;35177;45.900;5.946;2022-08-05T04:28:43;97347.09;;;20.52;100.00
49311;BME280;35177;45.900;5.946;2022-08-05T04:31:08;97355.75;;;20.74;100.00
49311;BME280;35177;45.900;5.946;2022-08-05T04:33:34;97358.78;;;20.13;100.00
49311;BME280;35177;45.900;5.946;2022-08-05T04:35:59;97354.91;;;20.29;100.00
49311;BME280;35177;45.900;5.946;2022-08-05T04:38:25;97361.13;;;20.45;100.00
49311;BME280;35177;45.900;5.946;2022-08-05T04:40:50;97356.50;;;20.67;100.00
49311;BME280;35177;45.900;5.946;2022-08-05T04:43:16;97365.16;;;20.89;100.00
49311;BME280;35177;45.900;5.946;2022-08-05T04:45:41;97368.03;;;20.96;100.00
49311;BME280;35177;45.900;5.946;2022-08-05T04:48:09;97377.72;;;20.99;100.00
49311;BME280;35177;45.900;5.946;2022-08-05T04:50:45;97379.41;;;21.07;100.00
49311;BME280;35177;45.900;5.946;2022-08-05T04:53:12;97378.22;;;21.08;100.00
49311;BME280;35177;45.900;5.946;2022-08-05T04:55:39;97378.53;;;20.96;100.00
49311;BME280;35177;45.900;5.946;2022-08-05T04:58:06;97379.91;;;19.69;100.00
49311;BME280;35177;45.900;5.946;2022-08-05T05:00:33;97385.63;;;20.41;100.00
49311;BME280;35177;45.900;5.946;2022-08-05T05:02:59;97386.41;;;20.76;100.00
49311;BME280;35177;45.900;5.946;2022-08-05T05:05:25;97395.09;;;21.01;100.00
49311;BME280;35177;45.900;5.946;2022-08-05T05:07:50;97398.38;;;21.07;100.00
49311;BME280;35177;45.900;5.946;2022-08-05T05:10:16;97396.47;;;21.22;100.00
49311;BME280;35177;45.900;5.946;2022-08-05T05:12:42;97397.78;;;21.35;100.00
49311;BME280;35177;45.900;5.946;2022-08-05T05:15:08;97393.47;;;21.00;100.00
49311;BME280;35177;45.900;5.946;2022-08-05T05:17:41;97390.03;;;21.25;100.00
49311;BME280;35177;45.900;5.946;2022-08-05T05:20:09;97400.06;;;21.18;100.00
49311;BME280;35177;45.900;5.946;2022-08-05T05:22:35;97392.75;;;20.69;100.00
49311;BME280;35177;45.900;5.946;2022-08-05T05:25:02;97404.41;;;21.09;100.00
49311;BME280;35177;45.900;5.946;2022-08-05T05:27:32;97400.41;;;21.10;100.00
49311;BME280;35177;45.900;5.946;2022-08-05T05:29:59;97397.84;;;21.46;100.00
49311;BME280;35177;45.900;5.946;2022-08-05T05:32:24;97401.69;;;21.72;100.00
49311;BME280;35177;45.900;5.946;2022-08-05T05:34:50;97403.38;;;21.91;100.00
49311;BME280;35177;45.900;5.946;2022-08-05T05:37:15;97403.00;;;21.96;100.00
49311;BME280;35177;45.900;5.946;2022-08-05T05:39:41;97398.63;;;22.17;100.00
49311;BME280;35177;45.900;5.946;2022-08-05T05:42:07;97399.78;;;21.94;100.00
49311;BME280;35177;45.900;5.946;2022-08-05T05:44:33;97406.94;;;21.77;100.00
49311;BME280;35177;45.900;5.946;2022-08-05T05:46:59;97406.69;;;22.07;100.00
49311;BME280;35177;45.900;5.946;2022-08-05T05:49:25;97409.38;;;21.82;100.00
49311;BME280;35177;45.900;5.946;2022-08-05T05:51:51;97407.88;;;22.03;100.00
49311;BME280;35177;45.900;5.946;2022-08-05T05:54:17;97410.81;;;22.35;100.00
49311;BME280;35177;45.900;5.946;2022-08-05T05:56:43;97408.03;;;22.42;100.00
49311;BME280;35177;45.900;5.946;2022-08-05T05:59:08;97420.63;;;22.56;100.00
49311;BME280;35177;45.900;5.946;2022-08-05T06:01:36;97412.16;;;21.71;100.00
49311;BME280;35177;45.900;5.946;2022-08-05T06:04:02;97412.31;;;21.41;100.00
49311;BME280;35177;45.900;5.946;2022-08-05T06:06:28;97419.94;;;21.33;100.00
49311;BME280;35177;45.900;5.946;2022-08-05T06:08:53;97424.78;;;21.32;100.00
49311;BME280;35177;45.900;5.946;2022-08-05T06:11:19;97417.88;;;21.26;100.00
49311;BME280;35177;45.900;5.946;2022-08-05T06:13:44;97430.41;;;21.29;100.00
49311;BME280;35177;45.900;5.946;2022-08-05T06:16:10;97426.16;;;21.57;100.00
49311;BME280;35177;45.900;5.946;2022-08-05T06:18:35;97417.78;;;21.67;100.00
49311;BME280;35177;45.900;5.946;2022-08-05T06:21:02;97427.91;;;21.72;100.00
49311;BME280;35177;45.900;5.946;2022-08-05T06:23:28;97437.31;;;21.98;100.00
49311;BME280;35177;45.900;5.946;2022-08-05T06:25:54;97422.81;;;22.03;100.00
49311;BME280;35177;45.900;5.946;2022-08-05T06:28:19;97428.88;;;22.05;100.00
49311;BME280;35177;45.900;5.946;2022-08-05T06:30:45;97426.16;;;22.34;100.00
49311;BME280;35177;45.900;5.946;2022-08-05T06:33:10;97426.56;;;22.33;100.00
49311;BME280;35177;45.900;5.946;2022-08-05T06:35:35;97427.09;;;22.63;100.00
49311;BME280;35177;45.900;5.946;2022-08-05T06:38:01;97423.03;;;22.54;100.00
49311;BME280;35177;45.900;5.946;2022-08-05T06:40:26;97428.69;;;22.61;100.00
49311;BME280;35177;45.900;5.946;2022-08-05T06:42:52;97427.09;;;22.63;100.00
49311;BME280;35177;45.900;5.946;2022-08-05T06:45:21;97425.47;;;22.52;100.00
49311;BME280;35177;45.900;5.946;2022-08-05T06:47:47;97433.56;;;22.64;100.00
49311;BME280;35177;45.900;5.946;2022-08-05T06:50:12;97433.19;;;22.76;100.00
49311;BME280;35177;45.900;5.946;2022-08-05T06:52:38;97428.78;;;22.93;100.00
49311;BME280;35177;45.900;5.946;2022-08-05T06:55:04;97440.09;;;22.97;100.00
49311;BME280;35177;45.900;5.946;2022-08-05T06:57:30;97445.38;;;23.06;100.00
49311;BME280;35177;45.900;5.946;2022-08-05T06:59:56;97436.09;;;23.34;100.00
49311;BME280;35177;45.900;5.946;2022-08-05T07:02:21;97434.84;;;23.50;100.00
49311;BME280;35177;45.900;5.946;2022-08-05T07:04:47;97441.72;;;23.63;100.00
49311;BME280;35177;45.900;5.946;2022-08-05T07:07:12;97439.31;;;23.69;100.00
49311;BME280;35177;45.900;5.946;2022-08-05T07:09:38;97444.53;;;23.81;100.00
49311;BME280;35177;45.900;5.946;2022-08-05T07:12:03;97439.25;;;23.98;100.00
49311;BME280;35177;45.900;5.946;2022-08-05T07:14:29;97434.38;;;24.13;100.00
49311;BME280;35177;45.900;5.946;2022-08-05T07:17:13;97445.69;;;24.16;100.00
49311;BME280;35177;45.900;5.946;2022-08-05T07:19:38;97442.00;;;24.23;100.00
49311;BME280;35177;45.900;5.946;2022-08-05T07:22:04;97443.19;;;24.29;100.00
49311;BME280;35177;45.900;5.946;2022-08-05T07:24:30;97441.13;;;24.41;98.24
49311;BME280;35177;45.900;5.946;2022-08-05T07:26:55;97435.81;;;24.50;88.32
49311;BME280;35177;45.900;5.946;2022-08-05T07:29:21;97443.56;;;24.46;89.36
49311;BME280;35177;45.900;5.946;2022-08-05T07:31:47;97447.63;;;24.37;94.47
49311;BME280;35177;45.900;5.946;2022-08-05T07:34:13;97438.28;;;24.41;93.84
49311;BME280;35177;45.900;5.946;2022-08-05T07:36:38;97442.69;;;24.52;91.70
49311;BME280;35177;45.900;5.946;2022-08-05T07:39:06;97447.09;;;24.72;90.91
49311;BME280;35177;45.900;5.946;2022-08-05T07:41:33;97431.69;;;24.69;86.86
49311;BME280;35177;45.900;5.946;2022-08-05T07:43:59;97440.06;;;24.94;90.01
49311;BME280;35177;45.900;5.946;2022-08-05T07:46:28;97439.66;;;24.92;85.89
49311;BME280;35177;45.900;5.946;2022-08-05T07:48:56;97441.28;;;24.90;87.84
49311;BME280;35177;45.900;5.946;2022-08-05T07:51:21;97431.47;;;25.05;84.14
49311;BME280;35177;45.900;5.946;2022-08-05T07:53:47;97430.09;;;25.21;81.96
49311;BME280;35177;45.900;5.946;2022-08-05T07:56:12;97434.59;;;25.18;82.05
49311;BME280;35177;45.900;5.946;2022-08-05T07:58:38;97423.09;;;25.40;81.77
49311;BME280;35177;45.900;5.946;2022-08-05T08:01:03;97428.16;;;25.63;78.75
49311;BME280;35177;45.900;5.946;2022-08-05T08:03:29;97436.81;;;25.48;78.20
49311;BME280;35177;45.900;5.946;2022-08-05T08:05:54;97434.94;;;25.76;77.96
49311;BME280;35177;45.900;5.946;2022-08-05T08:08:20;97429.09;;;25.91;79.55
49311;BME280;35177;45.900;5.946;2022-08-05T08:10:46;97433.56;;;25.88;78.10
49311;BME280;35177;45.900;5.946;2022-08-05T08:13:11;97427.53;;;25.86;77.76
49311;BME280;35177;45.900;5.946;2022-08-05T08:15:37;97427.44;;;25.93;77.59
49311;BME280;35177;45.900;5.946;2022-08-05T08:18:02;97428.97;;;26.02;76.36
49311;BME280;35177;45.900;5.946;2022-08-05T08:20:28;97431.00;;;26.01;75.13
49311;BME280;35177;45.900;5.946;2022-08-05T08:22:55;97430.44;;;26.17;74.00
49311;BME280;35177;45.900;5.946;2022-08-05T08:25:22;97426.81;;;26.17;73.97
49311;BME280;35177;45.900;5.946;2022-08-05T08:27:48;97429.91;;;26.29;74.02
49311;BME280;35177;45.900;5.946;2022-08-05T08:30:14;97430.84;;;26.50;74.58
49311;BME280;35177;45.900;5.946;2022-08-05T08:32:40;97427.13;;;26.53;71.63
49311;BME280;35177;45.900;5.946;2022-08-05T08:35:06;97424.19;;;26.60;71.07
49311;BME280;35177;45.900;5.946;2022-08-05T08:37:32;97426.25;;;26.60;70.88
49311;BME280;35177;45.900;5.946;2022-08-05T08:39:58;97413.47;;;26.72;72.17
49311;BME280;35177;45.900;5.946;2022-08-05T08:42:24;97421.13;;;27.06;70.31
49311;BME280;35177;45.900;5.946;2022-08-05T08:44:55;97420.00;;;27.00;71.72
49311;BME280;35177;45.900;5.946;2022-08-05T08:47:24;97421.91;;;27.34;68.88
49311;BME280;35177;45.900;5.946;2022-08-05T08:49:52;97422.13;;;27.47;63.79
49311;BME280;35177;45.900;5.946;2022-08-05T08:52:28;97412.47;;;27.64;62.77
49311;BME280;35177;45.900;5.946;2022-08-05T08:54:54;97410.16;;;27.79;64.09
49311;BME280;35177;45.900;5.946;2022-08-05T08:57:20;97402.34;;;28.03;61.41
49311;BME280;35177;45.900;5.946;2022-08-05T08:59:47;97412.41;;;28.32;56.28
49311;BME280;35177;45.900;5.946;2022-08-05T09:02:13;97400.16;;;28.51;55.75
49311;BME280;35177;45.900;5.946;2022-08-05T09:04:39;97401.50;;;28.83;49.83
49311;BME280;35177;45.900;5.946;2022-08-05T09:07:05;97404.06;;;28.78;49.35
49311;BME280;35177;45.900;5.946;2022-08-05T09:09:34;97402.69;;;28.86;49.11
49311;BME280;35177;45.900;5.946;2022-08-05T09:12:05;97399.47;;;29.17;49.62
49311;BME280;35177;45.900;5.946;2022-08-05T09:14:32;97399.66;;;29.26;45.42
49311;BME280;35177;45.900;5.946;2022-08-05T09:17:04;97398.63;;;29.83;40.96
49311;BME280;35177;45.900;5.946;2022-08-05T09:19:30;97401.34;;;29.90;40.63
49311;BME280;35177;45.900;5.946;2022-08-05T09:21:55;97394.19;;;30.11;39.68
49311;BME280;35177;45.900;5.946;2022-08-05T09:24:21;97402.06;;;30.36;40.06
49311;BME280;35177;45.900;5.946;2022-08-05T09:26:50;97397.09;;;30.53;40.44
49311;BME280;35177;45.900;5.946;2022-08-05T09:29:16;97394.94;;;30.83;37.28
49311;BME280;35177;45.900;5.946;2022-08-05T09:31:42;97399.22;;;31.17;37.55
49311;BME280;35177;45.900;5.946;2022-08-05T09:34:10;97395.22;;;31.63;36.74
49311;BME280;35177;45.900;5.946;2022-08-05T09:36:49;97386.72;;;31.72;35.26
49311;BME280;35177;45.900;5.946;2022-08-05T09:39:16;97387.50;;;32.08;34.54
49311;BME280;35177;45.900;5.946;2022-08-05T09:42:02;97391.38;;;32.58;34.17
49311;BME280;35177;45.900;5.946;2022-08-05T09:44:40;97381.72;;;32.74;33.04
49311;BME280;35177;45.900;5.946;2022-08-05T09:47:10;97374.91;;;33.12;33.23
49311;BME280;35177;45.900;5.946;2022-08-05T09:49:46;97383.19;;;33.10;31.83
49311;BME280;35177;45.900;5.946;2022-08-05T09:52:32;97370.19;;;33.46;31.63
49311;BME280;35177;45.900;5.946;2022-08-05T09:54:59;97375.22;;;33.83;27.86
49311;BME280;35177;45.900;5.946;2022-08-05T09:59:57;97376.50;;;34.10;27.37
49311;BME280;35177;45.900;5.946;2022-08-05T10:02:36;97377.13;;;33.77;28.14
49311;BME280;35177;45.900;5.946;2022-08-05T10:05:04;97365.97;;;33.98;28.03
49311;BME280;35177;45.900;5.946;2022-08-05T10:07:51;97366.56;;;34.20;27.17
49311;BME280;35177;45.900;5.946;2022-08-05T10:10:19;97356.84;;;34.88;27.21
49311;BME280;35177;45.900;5.946;2022-08-05T10:12:48;97360.13;;;34.53;25.02
49311;BME280;35177;45.900;5.946;2022-08-05T10:15:23;97358.56;;;34.24;25.77
49311;BME280;35177;45.900;5.946;2022-08-05T10:20:49;97357.13;;;34.90;25.12
49311;BME280;35177;45.900;5.946;2022-08-05T10:23:35;97348.72;;;35.11;25.07
49311;BME280;35177;45.900;5.946;2022-08-05T10:26:03;97337.06;;;35.30;24.58
49311;BME280;35177;45.900;5.946;2022-08-05T10:28:30;97348.72;;;34.68;25.71
49311;BME280;35177;45.900;5.946;2022-08-05T10:30:59;97347.22;;;35.25;25.55
49311;BME280;35177;45.900;5.946;2022-08-05T10:33:27;97336.53;;;35.41;24.62
49311;BME280;35177;45.900;5.946;2022-08-05T10:35:54;97346.75;;;35.51;24.36
49311;BME280;35177;45.900;5.946;2022-08-05T10:38:22;97335.59;;;35.83;24.01
49311;BME280;35177;45.900;5.946;2022-08-05T10:40:53;97343.59;;;36.57;23.06
49311;BME280;35177;45.900;5.946;2022-08-05T10:43:38;97342.03;;;37.07;23.42
49311;BME280;35177;45.900;5.946;2022-08-05T10:46:09;97334.47;;;36.79;23.16
49311;BME280;35177;45.900;5.946;2022-08-05T10:48:40;97343.69;;;35.94;23.84
49311;BME280;35177;45.900;5.946;2022-08-05T10:51:07;97327.06;;;35.89;24.11
49311;BME280;35177;45.900;5.946;2022-08-05T10:53:43;97332.28;;;35.75;24.30
49311;BME280;35177;45.900;5.946;2022-08-05T10:56:18;97337.16;;;35.11;25.18
49311;BME280;35177;45.900;5.946;2022-08-05T11:01:39;97324.91;;;36.13;24.75
49311;BME280;35177;45.900;5.946;2022-08-05T11:04:08;97327.66;;;35.20;25.10
49311;BME280;35177;45.900;5.946;2022-08-05T11:11:52;97311.41;;;36.49;24.03
49311;BME280;35177;45.900;5.946;2022-08-05T11:14:32;97313.53;;;37.00;24.14
49311;BME280;35177;45.900;5.946;2022-08-05T11:19:57;97314.56;;;35.82;25.20
49311;BME280;35177;45.900;5.946;2022-08-05T11:25:36;97309.47;;;36.76;24.62
49311;BME280;35177;45.900;5.946;2022-08-05T11:46:41;97287.03;;;37.63;25.14
49311;BME280;35177;45.900;5.946;2022-08-05T11:49:10;97290.34;;;37.76;24.22
49311;BME280;35177;45.900;5.946;2022-08-05T11:51:40;97286.28;;;37.89;24.62
49311;BME280;35177;45.900;5.946;2022-08-05T11:54:06;97282.59;;;37.68;25.10
49311;BME280;35177;45.900;5.946;2022-08-05T11:56:46;97281.25;;;37.07;25.33
49311;BME280;35177;45.900;5.946;2022-08-05T11:59:30;97277.31;;;37.25;25.71
49311;BME280;35177;45.900;5.946;2022-08-05T12:02:05;97272.59;;;37.27;26.10
49311;BME280;35177;45.900;5.946;2022-08-05T12:04:45;97269.50;;;37.93;24.56
49311;BME280;35177;45.900;5.946;2022-08-05T12:07:13;97268.34;;;38.11;26.13
49311;BME280;35177;45.900;5.946;2022-08-05T12:09:41;97271.72;;;36.86;25.87
49311;BME280;35177;45.900;5.946;2022-08-05T12:12:07;97267.19;;;37.14;24.95
49311;BME280;35177;45.900;5.946;2022-08-05T12:14:41;97263.69;;;37.10;25.15
49311;BME280;35177;45.900;5.946;2022-08-05T12:17:08;97255.72;;;36.70;25.90
49311;BME280;35177;45.900;5.946;2022-08-05T12:19:49;97250.88;;;36.96;24.90
49311;BME280;35177;45.900;5.946;2022-08-05T12:22:16;97253.19;;;36.77;25.16
49311;BME280;35177;45.900;5.946;2022-08-05T12:24:45;97245.69;;;36.86;25.24
49311;BME280;35177;45.900;5.946;2022-08-05T12:27:22;97237.34;;;36.88;24.81
49311;BME280;35177;45.900;5.946;2022-08-05T12:30:05;97240.22;;;36.88;25.22
49311;BME280;35177;45.900;5.946;2022-08-05T12:32:32;97239.63;;;36.48;26.48
49311;BME280;35177;45.900;5.946;2022-08-05T12:34:59;97237.38;;;36.58;26.08
49311;BME280;35177;45.900;5.946;2022-08-05T12:37:26;97234.28;;;36.61;25.97
49311;BME280;35177;45.900;5.946;2022-08-05T12:39:52;97239.28;;;36.61;25.50
49311;BME280;35177;45.900;5.946;2022-08-05T12:42:19;97234.00;;;36.29;25.73
49311;BME280;35177;45.900;5.946;2022-08-05T12:44:45;97229.28;;;35.96;26.21
49311;BME280;35177;45.900;5.946;2022-08-05T12:47:12;97226.53;;;36.53;25.88
49311;BME280;35177;45.900;5.946;2022-08-05T12:49:45;97223.75;;;36.58;25.83
49311;BME280;35177;45.900;5.946;2022-08-05T12:52:15;97217.84;;;36.53;25.38
49311;BME280;35177;45.900;5.946;2022-08-05T12:54:43;97218.75;;;36.94;26.68
49311;BME280;35177;45.900;5.946;2022-08-05T12:57:10;97209.00;;;37.33;26.53
49311;BME280;35177;45.900;5.946;2022-08-05T12:59:46;97205.06;;;37.57;24.80
49311;BME280;35177;45.900;5.946;2022-08-05T13:02:15;97200.53;;;37.76;24.58
49311;BME280;35177;45.900;5.946;2022-08-05T13:04:43;97191.56;;;37.74;25.29
49311;BME280;35177;45.900;5.946;2022-08-05T13:07:12;97187.22;;;37.85;25.88
49311;BME280;35177;45.900;5.946;2022-08-05T13:09:42;97192.22;;;36.96;25.75
49311;BME280;35177;45.900;5.946;2022-08-05T13:12:15;97174.63;;;37.41;25.75
49311;BME280;35177;45.900;5.946;2022-08-05T13:14:44;97174.25;;;37.33;25.66
49311;BME280;35177;45.900;5.946;2022-08-05T13:17:17;97174.47;;;36.53;26.16
49311;BME280;35177;45.900;5.946;2022-08-05T13:22:24;97158.78;;;37.36;27.85
49311;BME280;35177;45.900;5.946;2022-08-05T13:24:50;97154.97;;;38.03;26.25
49311;BME280;35177;45.900;5.946;2022-08-05T13:27:32;97159.91;;;37.71;25.38
49311;BME280;35177;45.900;5.946;2022-08-05T13:29:58;97158.56;;;37.19;25.71
49311;BME280;35177;45.900;5.946;2022-08-05T13:32:25;97156.28;;;37.50;25.06
49311;BME280;35177;45.900;5.946;2022-08-05T13:34:51;97155.63;;;36.93;26.12
49311;BME280;35177;45.900;5.946;2022-08-05T13:37:18;97150.09;;;37.36;25.58
49311;BME280;35177;45.900;5.946;2022-08-05T13:39:46;97147.50;;;36.97;26.47
49311;BME280;35177;45.900;5.946;2022-08-05T13:42:11;97149.69;;;37.02;26.79
49311;BME280;35177;45.900;5.946;2022-08-05T13:44:37;97137.91;;;37.32;26.24
49311;BME280;35177;45.900;5.946;2022-08-05T13:47:02;97137.63;;;37.30;26.81
49311;BME280;35177;45.900;5.946;2022-08-05T13:49:28;97130.13;;;37.18;26.12
49311;BME280;35177;45.900;5.946;2022-08-05T13:51:53;97127.44;;;37.61;26.60